Time;durP1;ratioP1;P1;durP2;ratioP2;P2;SDS_P1;SDS_P2;PMS_P1;PMS_P2;Temp;Humidity;BMP_temperature;BMP_pressure;BME280_temperature;BME280_humidity;BME280_pressure;Samples;Min_cycle;Max_cycle;Signal;HPM_P1;HPM_P2
2023/11/02 00:04:14;;;;;;;5.35;2.33;;;;;;;;;;10531580;28;20047;-77
2023/11/02 00:09:39;;;;;;;3.50;1.70;;;;;;;;;;10531691;28;20040;-77
2023/11/02 00:14:45;;;;;;;2.03;1.02;;;;;;;;;;10526401;28;20087;-76
2023/11/02 00:19:48;;;;;;;4.03;1.55;;;;;;;;;;10527466;28;20436;-75
2023/11/02 00:24:52;;;;;;;2.05;1.30;;;;;;;;;;10526914;28;20048;-75
2023/11/02 00:29:56;;;;;;;2.20;1.23;;;;;;;;;;10530572;28;20426;-76
2023/11/02 00:35:00;;;;;;;4.40;1.50;;;;;;;;;;10530628;28;20412;-76
2023/11/02 00:40:02;;;;;;;2.67;1.30;;;;;;;;;;10531596;28;20048;-75
2023/11/02 00:45:07;;;;;;;3.60;1.70;;;;;;;;;;10526012;28;20044;-76
2023/11/02 00:50:30;;;;;;;3.78;1.52;;;;;;;;;;10531213;28;20047;-75
2023/11/02 00:55:34;;;;;;;3.38;1.77;;;;;;;;;;10526405;28;20040;-74
2023/11/02 01:00:53;;;;;;;1.20;1.05;;;;;;;;;;10526916;28;20032;-75
2023/11/02 01:05:56;;;;;;;3.53;1.70;;;;;;;;;;10527359;28;20051;-76
2023/11/02 01:10:59;;;;;;;1.05;0.95;;;;;;;;;;10530866;28;20127;-76
2023/11/02 01:16:05;;;;;;;1.67;1.08;;;;;;;;;;10533896;28;20061;-76
2023/11/02 01:21:08;;;;;;;3.47;1.48;;;;;;;;;;10520557;28;20586;-75
2023/11/02 01:26:29;;;;;;;1.75;1.17;;;;;;;;;;10529413;28;20442;-76
2023/11/02 01:31:36;;;;;;;2.03;1.00;;;;;;;;;;10523221;28;20101;-76
2023/11/02 01:36:39;;;;;;;1.80;1.00;;;;;;;;;;10525961;28;20043;-76
2023/11/02 01:41:45;;;;;;;5.33;1.47;;;;;;;;;;10530920;28;20058;-77
2023/11/02 01:46:53;;;;;;;1.73;1.00;;;;;;;;;;10532192;28;20704;-76
2023/11/02 01:52:00;;;;;;;1.55;1.02;;;;;;;;;;10524954;28;20047;-76
2023/11/02 01:57:04;;;;;;;1.70;1.15;;;;;;;;;;10537109;28;20501;-75
2023/11/02 02:02:14;;;;;;;2.03;0.75;;;;;;;;;;10535143;28;20109;-75
2023/11/02 02:07:18;;;;;;;1.00;0.82;;;;;;;;;;10515685;28;20895;-75
2023/11/02 02:12:26;;;;;;;0.68;0.68;;;;;;;;;;10529282;28;20068;-76
2023/11/02 02:17:36;;;;;;;1.52;0.82;;;;;;;;;;10537527;28;20048;-75
2023/11/02 02:22:43;;;;;;;0.75;0.75;;;;;;;;;;10532757;28;20443;-74
2023/11/02 02:27:54;;;;;;;2.88;1.10;;;;;;;;;;10533504;28;20047;-75
2023/11/02 02:33:05;;;;;;;0.68;0.50;;;;;;;;;;10531927;28;20196;-75
2023/11/02 02:38:12;;;;;;;2.95;1.15;;;;;;;;;;10522437;28;20489;-75
2023/11/02 02:43:17;;;;;;;0.63;0.63;;;;;;;;;;10530649;28;20122;-74
2023/11/02 02:48:20;;;;;;;1.90;1.08;;;;;;;;;;10537187;28;20089;-74
2023/11/02 02:53:27;;;;;;;1.13;0.52;;;;;;;;;;10531731;28;20044;-75
2023/11/02 02:58:30;;;;;;;2.35;1.00;;;;;;;;;;10538263;28;20092;-75
2023/11/02 03:03:35;;;;;;;2.40;1.52;;;;;;;;;;10529201;28;20442;-74
2023/11/02 03:08:41;;;;;;;0.77;0.47;;;;;;;;;;10524021;28;20119;-74
2023/11/02 03:13:45;;;;;;;0.85;0.45;;;;;;;;;;10528144;28;20044;-74
2023/11/02 03:18:49;;;;;;;1.38;0.90;;;;;;;;;;10530733;28;20081;-74
2023/11/02 03:23:58;;;;;;;2.28;0.98;;;;;;;;;;10536517;28;20158;-73
2023/11/02 03:29:05;;;;;;;0.77;0.40;;;;;;;;;;10530322;28;20083;-74
2023/11/02 03:34:13;;;;;;;1.33;0.75;;;;;;;;;;10529707;28;20452;-74
2023/11/02 03:39:24;;;;;;;1.33;0.80;;;;;;;;;;10524997;28;20033;-73
2023/11/02 03:44:30;;;;;;;0.55;0.52;;;;;;;;;;10526656;28;20427;-73
2023/11/02 03:49:42;;;;;;;0.70;0.57;;;;;;;;;;10526358;28;20046;-72
2023/11/02 03:54:58;;;;;;;0.73;0.65;;;;;;;;;;10530219;28;20138;-74
2023/11/02 04:00:04;;;;;;;0.75;0.73;;;;;;;;;;10534920;28;20040;-74
2023/11/02 04:05:12;;;;;;;3.58;0.93;;;;;;;;;;10529516;28;20044;-75
2023/11/02 04:10:17;;;;;;;1.10;0.45;;;;;;;;;;10537197;28;20044;-74
2023/11/02 04:15:19;;;;;;;0.65;0.40;;;;;;;;;;10535690;28;20056;-74
2023/11/02 04:20:22;;;;;;;4.18;1.05;;;;;;;;;;10542414;28;20408;-73
2023/11/02 04:25:26;;;;;;;0.88;0.70;;;;;;;;;;10536172;28;20047;-73
2023/11/02 04:30:30;;;;;;;1.48;0.68;;;;;;;;;;10540897;28;20071;-75
2023/11/02 04:35:33;;;;;;;1.27;0.63;;;;;;;;;;10536050;28;20656;-75
2023/11/02 04:40:39;;;;;;;0.75;0.60;;;;;;;;;;10537627;28;20032;-76
2023/11/02 04:45:41;;;;;;;1.00;0.52;;;;;;;;;;10530552;28;20606;-75
2023/11/02 04:50:44;;;;;;;2.20;1.00;;;;;;;;;;10530154;28;20028;-75
2023/11/02 04:55:48;;;;;;;0.80;0.70;;;;;;;;;;10534509;28;20104;-75
2023/11/02 05:00:51;;;;;;;0.28;0.20;;;;;;;;;;10529949;28;20196;-74
2023/11/02 05:05:53;;;;;;;0.85;0.50;;;;;;;;;;10536879;28;20070;-74
2023/11/02 05:10:57;;;;;;;1.33;0.57;;;;;;;;;;10540462;28;20043;-74
2023/11/02 05:16:00;;;;;;;0.80;0.63;;;;;;;;;;10529970;28;20454;-73
2023/11/02 05:21:03;;;;;;;1.83;0.82;;;;;;;;;;10535148;28;20126;-74
2023/11/02 05:26:07;;;;;;;0.63;0.60;;;;;;;;;;10537710;28;20043;-74
2023/11/02 05:31:10;;;;;;;0.65;0.50;;;;;;;;;;10532940;28;20549;-75
2023/11/02 05:36:13;;;;;;;2.15;0.80;;;;;;;;;;10532114;28;20064;-74
2023/11/02 05:41:17;;;;;;;0.35;0.32;;;;;;;;;;10531396;28;20516;-74
2023/11/02 05:46:19;;;;;;;;;;;;;;;;;;10527462;28;20354;-77
2023/11/02 05:51:22;;;;;;;1.20;0.90;;;;;;;;;;10527034;28;19920;-75
2023/11/02 05:56:26;;;;;;;3.22;0.75;;;;;;;;;;10532675;28;20046;-77
2023/11/02 06:01:29;;;;;;;2.38;0.80;;;;;;;;;;10526926;28;20048;-77
2023/11/02 06:06:31;;;;;;;0.70;0.70;;;;;;;;;;10539223;28;20051;-76
2023/11/02 06:11:35;;;;;;;0.30;0.30;;;;;;;;;;10537842;28;20066;-76
2023/11/02 06:16:38;;;;;;;0.80;0.68;;;;;;;;;;10537623;28;20044;-75
2023/11/02 06:21:41;;;;;;;0.47;0.47;;;;;;;;;;10524995;28;20113;-75
2023/11/02 06:26:45;;;;;;;2.40;0.60;;;;;;;;;;10523235;28;20143;-74
2023/11/02 06:31:47;;;;;;;1.08;0.40;;;;;;;;;;10524017;28;20064;-75
2023/11/02 06:36:50;;;;;;;1.70;0.60;;;;;;;;;;10522679;28;20390;-75
2023/11/02 06:41:54;;;;;;;0.43;0.38;;;;;;;;;;10530345;28;20280;-74
2023/11/02 06:46:59;;;;;;;0.90;0.70;;;;;;;;;;10526870;28;20094;-75
2023/11/02 06:52:02;;;;;;;1.42;0.40;;;;;;;;;;10536991;28;20078;-72
2023/11/02 06:57:07;;;;;;;1.17;0.80;;;;;;;;;;10529670;28;20160;-74
2023/11/02 07:02:09;;;;;;;;;;;;;;;;;;10533666;28;20047;-74
2023/11/02 07:07:12;;;;;;;0.77;0.45;;;;;;;;;;10537203;28;19923;-75
2023/11/02 07:12:16;;;;;;;1.27;0.70;;;;;;;;;;10544169;28;20039;-75
2023/11/02 07:17:19;;;;;;;0.80;0.60;;;;;;;;;;10538218;28;20039;-75
2023/11/02 07:22:22;;;;;;;0.88;0.43;;;;;;;;;;10536411;28;20063;-75
2023/11/02 07:27:28;;;;;;;1.83;0.60;;;;;;;;;;10514089;28;20105;-77
2023/11/02 07:32:30;;;;;;;1.33;0.70;;;;;;;;;;10532376;28;20044;-75
2023/11/02 07:37:33;;;;;;;0.88;0.70;;;;;;;;;;10535726;28;20081;-74
2023/11/02 07:42:38;;;;;;;2.47;0.70;;;;;;;;;;10534475;28;20035;-76
2023/11/02 07:47:41;;;;;;;0.80;0.65;;;;;;;;;;10531958;28;20040;-75
2023/11/02 07:52:44;;;;;;;0.77;0.50;;;;;;;;;;10528473;28;20043;-75
2023/11/02 07:57:51;;;;;;;7.82;0.90;;;;;;;;;;10529397;28;20036;-75
2023/11/02 08:02:53;;;;;;;1.63;0.57;;;;;;;;;;10535342;28;20074;-76
2023/11/02 08:07:56;;;;;;;1.05;0.50;;;;;;;;;;10527571;28;20048;-76
2023/11/02 08:13:00;;;;;;;1.33;0.70;;;;;;;;;;10532120;28;20040;-75
2023/11/02 08:18:03;;;;;;;0.47;0.47;;;;;;;;;;10528265;28;20040;-75
2023/11/02 08:23:06;;;;;;;1.83;0.90;;;;;;;;;;10533175;28;20447;-75
2023/11/02 08:28:10;;;;;;;0.82;0.70;;;;;;;;;;10531503;28;20195;-75
2023/11/02 08:33:13;;;;;;;1.40;1.00;;;;;;;;;;10532751;28;20134;-75
2023/11/02 08:38:16;;;;;;;1.48;0.60;;;;;;;;;;10534354;28;20527;-74
2023/11/02 08:43:20;;;;;;;1.20;0.70;;;;;;;;;;10529358;28;20207;-75
2023/11/02 08:48:23;;;;;;;1.58;0.75;;;;;;;;;;10534385;28;20061;-75
2023/11/02 08:53:26;;;;;;;2.83;0.90;;;;;;;;;;10532218;28;20089;-76
2023/11/02 08:58:30;;;;;;;1.00;0.70;;;;;;;;;;10531185;28;20040;-75
2023/11/02 09:03:32;;;;;;;;;;;;;;;;;;10538333;28;20131;-75
2023/11/02 09:08:35;;;;;;;2.97;1.05;;;;;;;;;;10535741;28;20018;-75
2023/11/02 09:13:39;;;;;;;0.87;0.53;;;;;;;;;;10536720;28;20044;-75
2023/11/02 09:18:42;;;;;;;0.28;0.25;;;;;;;;;;10542929;28;20044;-74
2023/11/02 09:23:45;;;;;;;2.43;1.30;;;;;;;;;;10537304;28;20097;-74
2023/11/02 09:28:50;;;;;;;0.57;0.47;;;;;;;;;;10544203;28;20089;-75
2023/11/02 09:33:52;;;;;;;2.95;0.80;;;;;;;;;;10528511;28;20048;-76
2023/11/02 09:39:00;;;;;;;2.42;0.70;;;;;;;;;;10529098;28;20474;-78
2023/11/02 09:44:06;;;;;;;1.50;1.00;;;;;;;;;;10524107;28;20489;-77
2023/11/02 09:49:08;;;;;;;2.25;1.20;;;;;;;;;;10524465;28;20068;-75
2023/11/02 09:54:13;;;;;;;2.58;0.80;;;;;;;;;;10531914;28;20042;-76
2023/11/02 09:59:18;;;;;;;5.25;1.42;;;;;;;;;;10528217;28;20044;-75
2023/11/02 10:04:21;;;;;;;1.90;0.73;;;;;;;;;;10521115;28;20039;-75
2023/11/02 10:09:24;;;;;;;1.48;0.98;;;;;;;;;;10526490;28;20048;-75
2023/11/02 10:14:28;;;;;;;4.68;1.40;;;;;;;;;;10527249;28;20124;-75
2023/11/02 10:19:31;;;;;;;3.50;1.13;;;;;;;;;;10534914;28;20584;-76
2023/11/02 10:24:35;;;;;;;1.60;1.00;;;;;;;;;;10538963;28;20074;-75
2023/11/02 10:29:45;;;;;;;1.85;0.80;;;;;;;;;;10533375;28;20078;-74
2023/11/02 10:34:47;;;;;;;6.13;2.33;;;;;;;;;;10533126;28;20452;-76
2023/11/02 10:39:50;;;;;;;2.35;0.73;;;;;;;;;;10533160;28;20119;-75
2023/11/02 10:44:56;;;;;;;4.13;1.90;;;;;;;;;;10533034;28;20051;-75
2023/11/02 10:49:59;;;;;;;4.47;1.00;;;;;;;;;;10534753;28;20466;-75
2023/11/02 10:55:09;;;;;;;2.22;1.02;;;;;;;;;;10534074;28;20040;-76
2023/11/02 11:00:15;;;;;;;2.10;1.30;;;;;;;;;;10533847;28;20127;-76
2023/11/02 11:05:19;;;;;;;1.77;0.90;;;;;;;;;;10531564;28;20067;-77
2023/11/02 11:10:22;;;;;;;1.98;1.08;;;;;;;;;;10537936;28;20512;-75
2023/11/02 11:15:26;;;;;;;3.40;1.60;;;;;;;;;;10533690;28;20044;-75
2023/11/02 11:20:29;;;;;;;2.45;1.27;;;;;;;;;;10532124;28;20476;-76
2023/11/02 11:25:32;;;;;;;4.85;1.48;;;;;;;;;;10525876;28;20080;-76
2023/11/02 11:30:38;;;;;;;2.90;1.37;;;;;;;;;;10537568;28;20119;-77
2023/11/02 11:36:10;;;;;;;2.60;1.10;;;;;;;;;;10516314;28;20048;-76
2023/11/02 11:41:27;;;;;;;6.15;1.30;;;;;;;;;;10537513;28;20127;-75
2023/11/02 11:46:44;;;;;;;4.15;1.30;;;;;;;;;;10531347;28;20097;-77
2023/11/02 11:51:49;;;;;;;5.22;1.90;;;;;;;;;;10534293;28;20125;-76
2023/11/02 11:56:52;;;;;;;3.67;1.63;;;;;;;;;;10536309;28;20054;-75
2023/11/02 12:02:14;;;;;;;3.90;1.63;;;;;;;;;;10533443;28;20044;-75
2023/11/02 12:07:22;;;;;;;4.72;2.03;;;;;;;;;;10533158;28;20047;-75
2023/11/02 12:12:24;;;;;;;4.85;2.03;;;;;;;;;;10526662;28;20046;-75
2023/11/02 12:17:27;;;;;;;7.82;2.10;;;;;;;;;;10533727;28;20044;-75
2023/11/02 12:22:48;;;;;;;4.13;2.20;;;;;;;;;;10532036;28;20068;-75
2023/11/02 12:27:57;;;;;;;8.15;1.80;;;;;;;;;;10530268;28;20498;-75
2023/11/02 12:33:00;;;;;;;3.75;1.50;;;;;;;;;;10527311;28;20040;-75
2023/11/02 12:38:07;;;;;;;1.70;1.60;;;;;;;;;;10528915;28;20047;-76
2023/11/02 12:43:09;;;;;;;5.13;1.83;;;;;;;;;;10523400;28;20381;-75
2023/11/02 12:48:26;;;;;;;3.25;1.92;;;;;;;;;;10527871;28;20052;-74
2023/11/02 12:53:34;;;;;;;3.78;1.50;;;;;;;;;;10525032;28;20464;-76
2023/11/02 12:58:38;;;;;;;3.40;1.88;;;;;;;;;;10530343;28;20129;-75
2023/11/02 13:03:55;;;;;;;3.88;1.77;;;;;;;;;;10527377;28;20040;-74
2023/11/02 13:09:11;;;;;;;3.83;1.63;;;;;;;;;;10526380;28;20052;-75
2023/11/02 13:14:16;;;;;;;4.65;1.92;;;;;;;;;;10529122;28;20064;-76
2023/11/02 13:19:23;;;;;;;3.38;1.63;;;;;;;;;;10525435;28;20097;-75
2023/11/02 13:24:29;;;;;;;2.35;1.63;;;;;;;;;;10523415;28;20079;-75
2023/11/02 13:29:34;;;;;;;2.15;1.08;;;;;;;;;;10526564;28;20043;-75
2023/11/02 13:34:39;;;;;;;3.05;1.30;;;;;;;;;;10523567;28;20044;-75
2023/11/02 13:39:44;;;;;;;3.00;1.70;;;;;;;;;;10532416;28;20036;-75
2023/11/02 13:44:47;;;;;;;3.00;1.70;;;;;;;;;;10529951;28;20109;-75
2023/11/02 13:49:50;;;;;;;2.47;1.58;;;;;;;;;;10530091;28;20729;-75
2023/11/02 13:54:55;;;;;;;2.50;1.60;;;;;;;;;;10527656;28;20055;-74
2023/11/02 14:00:00;;;;;;;1.90;0.85;;;;;;;;;;10530132;28;20437;-75
2023/11/02 14:05:03;;;;;;;2.33;1.23;;;;;;;;;;10526598;28;20040;-75
2023/11/02 14:10:10;;;;;;;1.65;1.00;;;;;;;;;;10525842;28;20036;-75
2023/11/02 14:15:13;;;;;;;2.47;1.40;;;;;;;;;;10527666;28;20104;-74
2023/11/02 14:20:16;;;;;;;2.08;0.85;;;;;;;;;;10529486;28;20107;-75
2023/11/02 14:25:22;;;;;;;2.22;1.48;;;;;;;;;;10506946;28;20113;-75
2023/11/02 14:30:26;;;;;;;0.98;0.70;;;;;;;;;;10529134;28;20039;-74
2023/11/02 14:35:30;;;;;;;3.38;1.27;;;;;;;;;;10528509;28;20075;-74
2023/11/02 14:40:34;;;;;;;3.20;1.20;;;;;;;;;;10522152;28;20117;-74
2023/11/02 14:45:38;;;;;;;1.92;0.90;;;;;;;;;;10529626;28;20139;-74
2023/11/02 14:50:40;;;;;;;1.48;0.55;;;;;;;;;;10527362;28;20459;-74
2023/11/02 14:55:45;;;;;;;3.20;1.20;;;;;;;;;;10530160;28;20048;-75
2023/11/02 15:00:49;;;;;;;4.95;1.63;;;;;;;;;;10527806;28;20463;-75
2023/11/02 15:05:51;;;;;;;1.55;0.90;;;;;;;;;;10537394;28;20039;-75
2023/11/02 15:10:56;;;;;;;5.28;1.73;;;;;;;;;;10534876;28;20067;-75
2023/11/02 15:15:58;;;;;;;3.10;0.75;;;;;;;;;;10542053;28;20044;-75
2023/11/02 15:21:06;;;;;;;1.58;0.57;;;;;;;;;;10541616;28;20119;-75
2023/11/02 15:26:10;;;;;;;1.30;0.80;;;;;;;;;;10535705;28;20083;-76
2023/11/02 15:31:19;;;;;;;2.50;0.95;;;;;;;;;;10537821;28;20175;-76
2023/11/02 15:36:21;;;;;;;0.77;0.75;;;;;;;;;;10529311;28;20075;-76
2023/11/02 15:41:25;;;;;;;1.67;1.10;;;;;;;;;;10550346;27;20039;-75
2023/11/02 15:46:30;;;;;;;3.10;1.10;;;;;;;;;;10533059;28;20112;-73
2023/11/02 15:51:33;;;;;;;3.92;1.70;;;;;;;;;;10528567;28;20508;-75
2023/11/02 15:56:37;;;;;;;1.25;0.75;;;;;;;;;;10534316;28;20063;-76
2023/11/02 16:01:40;;;;;;;;;;;;;;;;;;10539908;28;20063;-75
2023/11/02 16:06:44;;;;;;;1.27;0.95;;;;;;;;;;10536807;28;20014;-76
2023/11/02 16:11:51;;;;;;;1.08;0.80;;;;;;;;;;10530849;28;20051;-76
2023/11/02 16:16:54;;;;;;;2.03;1.02;;;;;;;;;;10530796;28;20052;-76
2023/11/02 16:21:57;;;;;;;4.18;1.23;;;;;;;;;;10529081;28;20101;-78
2023/11/02 16:27:01;;;;;;;4.72;2.03;;;;;;;;;;10532571;28;20052;-76
2023/11/02 16:32:05;;;;;;;5.03;2.55;;;;;;;;;;10535238;28;20620;-77
2023/11/02 16:37:08;;;;;;;6.13;2.05;;;;;;;;;;10529605;28;20517;-78
2023/11/02 16:42:12;;;;;;;3.28;1.30;;;;;;;;;;10528248;28;20056;-78
2023/11/02 16:47:16;;;;;;;4.15;1.98;;;;;;;;;;10527314;28;20064;-79
2023/11/02 16:52:18;;;;;;;4.90;1.13;;;;;;;;;;10531808;28;20071;-80
2023/11/02 16:57:22;;;;;;;6.32;1.75;;;;;;;;;;10533734;28;20048;-80
2023/11/02 17:02:25;;;;;;;1.20;0.77;;;;;;;;;;10525176;28;20044;-78
2023/11/02 17:07:28;;;;;;;4.15;1.40;;;;;;;;;;10530427;28;20097;-78
2023/11/02 17:12:32;;;;;;;3.15;1.80;;;;;;;;;;10528876;28;20444;-78
2023/11/02 17:17:36;;;;;;;2.95;1.55;;;;;;;;;;10535455;28;20094;-77
2023/11/02 17:22:40;;;;;;;2.25;1.42;;;;;;;;;;10541024;28;20047;-79
2023/11/02 17:27:44;;;;;;;3.58;1.27;;;;;;;;;;10540068;28;20040;-78
2023/11/02 17:32:47;;;;;;;3.13;1.55;;;;;;;;;;10530438;28;20104;-79
2023/11/02 17:37:50;;;;;;;2.95;1.40;;;;;;;;;;10540570;28;20048;-79
2023/11/02 17:42:54;;;;;;;2.15;1.08;;;;;;;;;;10543947;28;20048;-78
2023/11/02 17:47:58;;;;;;;0.47;0.47;;;;;;;;;;10538974;28;20036;-78
2023/11/02 17:53:00;;;;;;;;;;;;;;;;;;10541156;28;20130;-78
2023/11/02 17:58:05;;;;;;;2.80;1.20;;;;;;;;;;10549105;28;19920;-78
2023/11/02 18:03:07;;;;;;;1.02;0.65;;;;;;;;;;10548944;28;20088;-79
2023/11/02 18:08:11;;;;;;;3.08;1.88;;;;;;;;;;10551010;28;20048;-79
2023/11/02 18:13:15;;;;;;;7.93;1.55;;;;;;;;;;10543349;28;20036;-80
2023/11/02 18:18:18;;;;;;;1.75;1.27;;;;;;;;;;10517417;28;20036;-80
2023/11/02 18:23:22;;;;;;;3.00;1.13;;;;;;;;;;10533120;28;20060;-81
2023/11/02 18:28:27;;;;;;;1.23;0.75;;;;;;;;;;10518169;28;20040;-81
2023/11/02 18:33:32;;;;;;;;;;;;;;;;;;10549423;28;20048;-81
2023/11/02 18:38:35;;;;;;;1.67;0.82;;;;;;;;;;10534020;28;19931;-82
2023/11/02 18:43:40;;;;;;;3.97;1.20;;;;;;;;;;10520994;28;20052;-82
2023/11/02 18:48:43;;;;;;;2.58;1.33;;;;;;;;;;10541227;28;20032;-82
2023/11/02 18:53:46;;;;;;;2.45;1.17;;;;;;;;;;10533503;28;20031;-82
2023/11/02 18:58:50;;;;;;;3.67;1.57;;;;;;;;;;10534734;28;20063;-81
2023/11/02 19:03:53;;;;;;;3.00;1.38;;;;;;;;;;10536394;28;20462;-80
2023/11/02 19:08:56;;;;;;;1.77;0.90;;;;;;;;;;10534642;28;20061;-81
2023/11/02 19:14:00;;;;;;;1.67;0.88;;;;;;;;;;10537670;28;20169;-80
2023/11/02 19:19:04;;;;;;;;;;;;;;;;;;10534974;28;20090;-81
2023/11/02 19:24:10;;;;;;;2.17;1.20;;;;;;;;;;10532205;28;20341;-80
2023/11/02 19:29:14;;;;;;;2.97;1.10;;;;;;;;;;10536470;28;20128;-86
2023/11/02 19:34:17;;;;;;;;;;;;;;;;;;10535166;28;20048;-85
2023/11/02 19:39:20;;;;;;;1.15;0.75;;;;;;;;;;10539434;28;19920;-88
2023/11/02 19:44:25;;;;;;;0.97;0.80;;;;;;;;;;10543422;28;20040;-87
2023/11/02 19:49:28;;;;;;;4.93;1.15;;;;;;;;;;10532612;28;20366;-83
2023/11/02 19:54:31;;;;;;;0.85;0.68;;;;;;;;;;10531241;28;20044;-81
2023/11/02 19:59:35;;;;;;;1.40;1.08;;;;;;;;;;10536356;28;20067;-80
2023/11/02 20:04:38;;;;;;;2.25;0.73;;;;;;;;;;10532235;28;20111;-81
2023/11/02 20:09:41;;;;;;;1.73;0.73;;;;;;;;;;10532681;28;20036;-78
2023/11/02 20:14:45;;;;;;;1.13;0.70;;;;;;;;;;10533898;28;20048;-79
2023/11/02 20:19:48;;;;;;;0.40;0.20;;;;;;;;;;10531847;28;20044;-79
2023/11/02 20:24:51;;;;;;;1.40;0.85;;;;;;;;;;10529634;28;20032;-78
2023/11/02 20:29:56;;;;;;;1.63;0.93;;;;;;;;;;10530000;28;20477;-78
2023/11/02 20:34:59;;;;;;;1.77;0.93;;;;;;;;;;10533425;28;20047;-78
2023/11/02 20:40:03;;;;;;;0.65;0.50;;;;;;;;;;10533764;28;20659;-76
2023/11/02 20:45:08;;;;;;;0.47;0.38;;;;;;;;;;10528209;28;20457;-75
2023/11/02 20:50:11;;;;;;;0.88;0.60;;;;;;;;;;10520050;28;20083;-76
2023/11/02 20:55:15;;;;;;;1.85;0.65;;;;;;;;;;10517162;28;20055;-76
2023/11/02 21:00:20;;;;;;;0.60;0.35;;;;;;;;;;10528765;28;20477;-76
2023/11/02 21:05:24;;;;;;;0.95;0.50;;;;;;;;;;10530691;28;20417;-76
2023/11/02 21:10:26;;;;;;;0.40;0.30;;;;;;;;;;10526408;28;20481;-76
2023/11/02 21:15:30;;;;;;;0.40;0.40;;;;;;;;;;10525484;28;20120;-76
2023/11/02 21:20:34;;;;;;;1.50;0.75;;;;;;;;;;10521040;28;20032;-76
2023/11/02 21:25:36;;;;;;;0.63;0.50;;;;;;;;;;10530494;28;20404;-75
2023/11/02 21:30:40;;;;;;;1.40;0.68;;;;;;;;;;10515782;28;20055;-76
2023/11/02 21:35:43;;;;;;;0.80;0.50;;;;;;;;;;10519042;28;20526;-76
2023/11/02 21:40:46;;;;;;;0.65;0.40;;;;;;;;;;10527126;28;20187;-78
2023/11/02 21:45:50;;;;;;;2.13;0.80;;;;;;;;;;10526053;28;20048;-75
2023/11/02 21:50:52;;;;;;;1.25;0.57;;;;;;;;;;10522075;28;20501;-75
2023/11/02 21:55:55;;;;;;;0.75;0.47;;;;;;;;;;10524940;28;20458;-75
2023/11/02 22:00:59;;;;;;;1.67;0.65;;;;;;;;;;10531690;28;20052;-74
2023/11/02 22:06:05;;;;;;;1.65;0.68;;;;;;;;;;10522873;28;20039;-75
2023/11/02 22:11:09;;;;;;;0.60;0.47;;;;;;;;;;10540686;28;20044;-75
2023/11/02 22:16:14;;;;;;;2.40;0.80;;;;;;;;;;10527466;28;20055;-74
2023/11/02 22:21:18;;;;;;;1.67;0.65;;;;;;;;;;10529550;28;20055;-74
2023/11/02 22:26:22;;;;;;;0.73;0.60;;;;;;;;;;10532242;28;20064;-75
2023/11/02 22:31:26;;;;;;;0.47;0.47;;;;;;;;;;10534103;28;20473;-74
2023/11/02 22:36:29;;;;;;;1.27;0.55;;;;;;;;;;10531288;28;20144;-74
2023/11/02 22:41:39;;;;;;;0.30;0.30;;;;;;;;;;10534329;28;20200;-76
2023/11/02 22:46:43;;;;;;;0.65;0.30;;;;;;;;;;10530142;28;20054;-75
2023/11/02 22:51:46;;;;;;;4.18;0.77;;;;;;;;;;10528740;28;20122;-75
2023/11/02 22:56:50;;;;;;;1.23;0.45;;;;;;;;;;10529113;28;20464;-74
2023/11/02 23:01:55;;;;;;;0.55;0.20;;;;;;;;;;10530215;28;20108;-74
2023/11/02 23:06:58;;;;;;;2.75;0.60;;;;;;;;;;10531276;28;20098;-76
2023/11/02 23:12:00;;;;;;;1.50;0.60;;;;;;;;;;10532739;28;20051;-76
2023/11/02 23:17:04;;;;;;;0.57;0.57;;;;;;;;;;10530822;28;20091;-74
2023/11/02 23:22:07;;;;;;;;;;;;;;;;;;10530904;28;20123;-75
2023/11/02 23:27:09;;;;;;;1.02;0.50;;;;;;;;;;10532855;28;20031;-76
2023/11/02 23:32:13;;;;;;;2.50;0.68;;;;;;;;;;10529508;28;20038;-75
2023/11/02 23:37:16;;;;;;;;;;;;;;;;;;10528108;28;20358;-75
2023/11/02 23:42:18;;;;;;;0.77;0.47;;;;;;;;;;10526892;28;19994;-75
2023/11/02 23:47:23;;;;;;;1.63;0.15;;;;;;;;;;10525749;28;20044;-75
2023/11/02 23:52:25;;;;;;;3.50;0.30;;;;;;;;;;10535058;28;20040;-76
2023/11/02 23:57:29;;;;;;;0.43;0.10;;;;;;;;;;10533367;28;20071;-75
